createdAt,value
2022-10-14T00:00:39.842Z,43.45
2022-10-14T00:04:01.667Z,43.50
2022-10-14T00:07:20.795Z,46.13
2022-10-14T00:13:52.058Z,43.78
2022-10-14T00:17:09.541Z,45.90
2022-10-14T00:20:26.576Z,46.45
2022-10-14T00:23:42.778Z,47.43
2022-10-14T00:27:00.110Z,46.03
2022-10-14T00:30:18.655Z,45.83
2022-10-14T00:33:36.403Z,45.80
2022-10-14T00:36:53.337Z,41.28
2022-10-14T00:40:11.959Z,45.63
2022-10-14T00:43:32.177Z,44.30
2022-10-14T00:46:50.778Z,41.18
2022-10-14T00:50:07.589Z,42.60
2022-10-14T00:53:25.738Z,42.28
2022-10-14T00:56:45.067Z,43.63
2022-10-14T01:00:07.440Z,45.25
2022-10-14T01:03:31.007Z,46.00
2022-10-14T01:06:58.431Z,45.03
2022-10-14T01:10:22.405Z,42.30
2022-10-14T01:13:42.781Z,40.25
2022-10-14T01:17:05.514Z,38.93
2022-10-14T01:21:05.445Z,37.80
2022-10-14T01:24:44.621Z,42.27
2022-10-14T01:28:18.732Z,41.38
2022-10-14T01:31:39.483Z,42.63
2022-10-14T01:34:59.685Z,40.00
2022-10-14T01:38:20.667Z,40.38
2022-10-14T01:41:42.596Z,41.63
2022-10-14T01:45:04.430Z,43.10
2022-10-14T01:48:23.701Z,41.30
2022-10-14T01:55:01.152Z,44.03
2022-10-14T01:58:20.358Z,39.25
2022-10-14T02:01:37.444Z,41.68
2022-10-14T02:04:54.759Z,42.05
2022-10-14T02:08:17.879Z,39.90
2022-10-14T02:11:39.673Z,43.05
2022-10-14T02:15:02.024Z,41.63
2022-10-14T02:18:25.337Z,41.35
2022-10-14T02:21:47.383Z,44.70
2022-10-14T02:25:08.695Z,43.78
2022-10-14T02:28:29.068Z,41.10
2022-10-14T02:31:50.157Z,43.58
2022-10-14T02:35:09.519Z,41.95
2022-10-14T02:38:29.111Z,42.38
2022-10-14T02:41:46.506Z,43.78
2022-10-14T02:45:06.191Z,43.23
2022-10-14T02:48:24.991Z,47.15
2022-10-14T02:51:42.712Z,44.90
2022-10-14T02:54:59.853Z,46.70
2022-10-14T02:58:16.327Z,42.98
2022-10-14T03:01:37.354Z,42.95
2022-10-14T03:04:52.703Z,46.23
2022-10-14T03:08:08.936Z,40.33
2022-10-14T03:11:27.218Z,39.85
2022-10-14T03:14:45.124Z,44.80
2022-10-14T03:18:03.744Z,47.53
2022-10-14T03:21:22.280Z,44.10
2022-10-14T03:24:39.040Z,41.65
2022-10-14T03:28:16.000Z,43.48
2022-10-14T03:31:36.755Z,44.98
2022-10-14T03:35:14.537Z,44.63
2022-10-14T03:38:32.450Z,50.50
2022-10-14T03:41:49.369Z,50.65
2022-10-14T03:45:09.181Z,47.93
2022-10-14T03:48:28.339Z,52.88
2022-10-14T03:51:48.137Z,48.63
2022-10-14T03:55:06.714Z,45.65
2022-10-14T03:58:23.492Z,48.20
2022-10-14T04:01:41.553Z,57.50
2022-10-14T04:05:02.398Z,51.80
2022-10-14T04:08:20.088Z,50.13
2022-10-14T04:11:39.156Z,53.60
2022-10-14T04:14:58.006Z,46.23
2022-10-14T04:18:14.389Z,52.95
2022-10-14T04:21:32.029Z,57.75
2022-10-14T04:24:48.446Z,56.68
2022-10-14T04:28:04.585Z,57.60
2022-10-14T04:31:38.376Z,55.38
2022-10-14T04:34:55.851Z,51.30
2022-10-14T04:38:13.679Z,53.90
2022-10-14T04:41:31.999Z,54.63
2022-10-14T04:44:48.928Z,55.33
2022-10-14T04:48:06.460Z,56.83
2022-10-14T04:51:24.290Z,58.83
2022-10-14T04:54:47.957Z,59.00
2022-10-14T04:58:04.898Z,59.18
2022-10-14T05:04:36.994Z,66.38
2022-10-14T05:07:53.131Z,65.50
2022-10-14T05:11:11.217Z,69.35
2022-10-14T05:14:32.036Z,61.40
2022-10-14T05:17:50.158Z,62.13
2022-10-14T05:21:09.610Z,63.23
2022-10-14T05:24:44.545Z,61.28
2022-10-14T05:28:01.302Z,61.35
2022-10-14T05:31:18.489Z,62.95
2022-10-14T05:34:38.848Z,64.38
2022-10-14T05:38:04.220Z,66.85
2022-10-14T05:41:23.586Z,72.13
2022-10-14T05:44:39.703Z,66.43
2022-10-14T05:47:56.073Z,57.20
2022-10-14T05:51:12.641Z,61.93
2022-10-14T05:54:29.539Z,62.28
2022-10-14T05:57:46.338Z,60.05
2022-10-14T06:01:07.822Z,54.95
2022-10-14T06:04:31.265Z,57.18
2022-10-14T06:07:47.467Z,56.75
2022-10-14T06:11:06.022Z,57.05
2022-10-14T06:14:22.558Z,53.38
2022-10-14T06:17:41.123Z,60.75
2022-10-14T06:21:03.202Z,62.80
2022-10-14T06:24:19.965Z,60.03
2022-10-14T06:27:36.967Z,54.23
2022-10-14T06:30:58.550Z,56.28
2022-10-14T06:34:16.303Z,59.98
2022-10-14T06:37:32.632Z,56.08
2022-10-14T06:40:49.075Z,55.25
2022-10-14T06:44:05.275Z,52.83
2022-10-14T06:47:21.741Z,51.40
2022-10-14T06:50:38.015Z,50.13
2022-10-14T06:53:54.019Z,47.15
2022-10-14T06:57:14.286Z,53.27
2022-10-14T07:00:30.818Z,47.50
2022-10-14T07:03:47.423Z,50.13
2022-10-14T07:07:04.184Z,53.60
2022-10-14T07:10:20.774Z,51.30
2022-10-14T07:13:36.961Z,45.38
2022-10-14T07:16:54.289Z,45.58
2022-10-14T07:20:11.101Z,45.05
2022-10-14T07:23:27.779Z,43.75
2022-10-14T07:26:43.998Z,42.53
2022-10-14T07:30:00.216Z,45.75
2022-10-14T07:33:16.802Z,42.83
2022-10-14T07:36:33.336Z,40.10
2022-10-14T07:40:11.464Z,45.55
2022-10-14T07:43:27.738Z,44.23
2022-10-14T07:46:47.955Z,45.28
2022-10-14T07:50:04.976Z,42.60
2022-10-14T07:53:21.635Z,46.65
2022-10-14T07:56:38.615Z,44.73
2022-10-14T07:59:56.383Z,43.03
2022-10-14T08:03:13.244Z,43.03
2022-10-14T08:06:29.460Z,47.80
2022-10-14T08:09:46.958Z,46.60
2022-10-14T08:13:03.316Z,47.58
2022-10-14T08:16:27.761Z,47.58
2022-10-14T08:19:44.752Z,43.90
2022-10-14T08:23:00.859Z,50.25
2022-10-14T08:26:29.236Z,50.93
2022-10-14T08:29:46.627Z,47.65
2022-10-14T08:33:03.903Z,47.60
2022-10-14T08:36:21.409Z,45.90
2022-10-14T08:39:39.087Z,50.20
2022-10-14T08:43:01.515Z,49.70
2022-10-14T08:46:23.971Z,45.95
2022-10-14T08:49:47.642Z,47.95
2022-10-14T08:53:10.581Z,43.75
2022-10-14T08:56:28.757Z,44.48
2022-10-14T08:59:48.828Z,49.53
2022-10-14T09:03:07.539Z,47.55
2022-10-14T09:06:31.560Z,53.03
2022-10-14T09:09:51.911Z,46.68
2022-10-14T09:13:15.910Z,49.18
2022-10-14T09:16:36.756Z,52.15
2022-10-14T09:20:01.633Z,49.90
2022-10-14T09:23:29.064Z,63.53
2022-10-14T09:26:52.698Z,60.73
2022-10-14T09:30:11.046Z,49.23
2022-10-14T09:33:29.198Z,43.97
2022-10-14T09:36:45.511Z,47.93
2022-10-14T09:40:06.875Z,47.93
2022-10-14T09:43:30.988Z,46.35
2022-10-14T09:46:48.524Z,52.08
2022-10-14T09:50:06.503Z,44.00
2022-10-14T09:53:31.733Z,46.13
2022-10-14T09:56:52.285Z,49.73
2022-10-14T10:00:13.230Z,42.58
2022-10-14T10:04:29.608Z,41.68
2022-10-14T10:07:45.846Z,46.08
2022-10-14T10:11:11.940Z,45.85
2022-10-14T10:14:33.281Z,43.20
2022-10-14T10:17:49.905Z,38.08
2022-10-14T10:21:20.838Z,47.50
2022-10-14T10:24:36.917Z,39.85
2022-10-14T10:27:55.752Z,35.18
2022-10-14T10:31:18.359Z,31.55
2022-10-14T10:35:12.469Z,32.53
2022-10-14T10:38:35.506Z,56.10
2022-10-14T10:42:07.181Z,33.85
2022-10-14T10:45:35.603Z,35.80
2022-10-14T10:48:56.258Z,31.33
2022-10-14T10:52:21.237Z,33.45
2022-10-14T10:55:43.880Z,30.65
2022-10-14T11:03:04.086Z,37.70
2022-10-14T11:06:30.139Z,32.98
2022-10-14T11:10:06.138Z,34.08
2022-10-14T11:13:32.349Z,34.93
2022-10-14T11:16:55.127Z,35.83
2022-10-14T11:20:19.599Z,33.18
2022-10-14T11:24:00.665Z,34.73
2022-10-14T11:27:26.329Z,31.65
2022-10-14T11:30:53.967Z,32.67
2022-10-14T11:34:34.072Z,29.03
2022-10-14T11:37:59.954Z,30.50
2022-10-14T11:41:23.240Z,30.95
2022-10-14T11:44:44.322Z,29.88
2022-10-14T11:48:05.622Z,27.78
2022-10-14T11:51:33.255Z,28.68
2022-10-14T11:54:51.655Z,25.10
2022-10-14T11:58:12.831Z,21.73
2022-10-14T12:01:35.821Z,30.38
2022-10-14T12:04:58.469Z,29.98
2022-10-14T12:08:28.468Z,28.05
2022-10-14T12:11:48.946Z,23.23
2022-10-14T12:15:10.286Z,26.10
2022-10-14T12:18:26.816Z,27.15
2022-10-14T12:21:50.688Z,26.15
2022-10-14T12:25:11.709Z,29.30
2022-10-14T12:28:29.641Z,30.18
2022-10-14T12:31:47.744Z,21.90
2022-10-14T12:35:05.988Z,25.30
2022-10-14T12:38:22.406Z,26.53
2022-10-14T12:41:48.688Z,24.88
2022-10-14T12:45:08.870Z,36.03
2022-10-14T12:48:28.625Z,32.98
2022-10-14T12:51:45.020Z,29.08
2022-10-14T12:55:03.719Z,28.30
2022-10-14T12:58:30.094Z,26.45
2022-10-14T13:01:49.706Z,29.03
2022-10-14T13:05:09.160Z,28.55
2022-10-14T13:08:35.956Z,29.80
2022-10-14T13:11:55.343Z,23.33
2022-10-14T13:15:20.017Z,24.23
2022-10-14T13:18:59.838Z,25.33
2022-10-14T13:22:49.077Z,24.33
2022-10-14T13:26:16.844Z,23.20
2022-10-14T13:29:50.107Z,24.08
2022-10-14T13:33:13.953Z,24.95
2022-10-14T13:36:39.739Z,24.20
2022-10-14T13:47:03.484Z,23.88
2022-10-14T13:50:27.498Z,27.53
2022-10-14T13:53:45.483Z,30.40
2022-10-14T14:00:41.793Z,26.08
2022-10-14T14:04:03.630Z,29.43
2022-10-14T14:08:14.672Z,26.60
2022-10-14T14:11:11.059Z,25.95
2022-10-14T14:14:11.156Z,25.70
2022-10-14T14:17:32.282Z,30.08
2022-10-14T14:20:48.711Z,27.60
2022-10-14T14:24:08.068Z,26.33
2022-10-14T14:27:28.905Z,29.68
2022-10-14T14:30:54.165Z,27.23
2022-10-14T14:34:09.138Z,31.18
2022-10-14T14:37:48.135Z,29.25
2022-10-14T14:40:49.590Z,27.00
2022-10-14T14:44:26.341Z,27.33
2022-10-14T14:47:28.396Z,27.98
2022-10-14T14:50:49.637Z,29.28
2022-10-14T14:54:06.695Z,29.55
2022-10-14T14:57:25.972Z,27.78
2022-10-14T15:00:53.630Z,28.08
2022-10-14T15:04:14.657Z,29.85
2022-10-14T15:07:35.028Z,28.68
2022-10-14T15:10:56.181Z,37.78
2022-10-14T15:14:28.046Z,27.88
2022-10-14T15:17:50.638Z,27.53
2022-10-14T15:21:26.294Z,30.60
2022-10-14T15:24:43.797Z,29.65
2022-10-14T15:28:04.436Z,34.73
2022-10-14T15:31:27.939Z,31.38
2022-10-14T15:34:45.221Z,35.85
2022-10-14T15:38:03.193Z,35.25
2022-10-14T15:41:20.693Z,33.35
2022-10-14T15:44:37.210Z,33.15
2022-10-14T15:47:54.392Z,35.48
2022-10-14T15:51:12.045Z,34.20
2022-10-14T15:54:30.035Z,38.30
2022-10-14T15:57:46.914Z,34.43
2022-10-14T16:01:04.196Z,38.58
2022-10-14T16:04:28.389Z,33.38
2022-10-14T16:07:46.196Z,32.85
2022-10-14T16:11:05.126Z,36.73
2022-10-14T16:14:22.271Z,32.38
2022-10-14T16:17:39.226Z,33.80
2022-10-14T16:20:56.226Z,36.55
2022-10-14T16:24:16.627Z,34.00
2022-10-14T16:30:54.470Z,37.55
2022-10-14T16:34:10.994Z,40.25
2022-10-14T16:37:27.965Z,37.70
2022-10-14T16:40:44.707Z,32.85
2022-10-14T16:44:02.201Z,35.60
2022-10-14T16:47:24.902Z,34.88
2022-10-14T16:50:43.142Z,37.35
2022-10-14T16:54:07.043Z,36.00
2022-10-14T16:57:23.937Z,34.78
2022-10-14T17:00:41.403Z,35.30
2022-10-14T17:03:59.336Z,40.15
2022-10-14T17:07:18.644Z,41.25
2022-10-14T17:13:49.155Z,38.70
2022-10-14T17:17:06.230Z,38.58
2022-10-14T17:20:25.274Z,39.50
2022-10-14T17:23:42.862Z,40.03
2022-10-14T17:27:05.230Z,38.13
2022-10-14T17:30:24.024Z,35.98
2022-10-14T17:33:42.086Z,41.78
2022-10-14T17:37:00.425Z,40.43
2022-10-14T17:40:19.073Z,36.47
2022-10-14T17:43:42.059Z,36.38
2022-10-14T17:47:00.165Z,39.08
2022-10-14T17:50:25.393Z,40.30
2022-10-14T17:53:42.218Z,44.53
2022-10-14T17:56:58.977Z,49.53
2022-10-14T18:00:18.491Z,49.00
2022-10-14T18:03:35.434Z,48.33
2022-10-14T18:06:54.933Z,47.55
2022-10-14T18:10:12.254Z,46.30
2022-10-14T18:13:29.336Z,52.85
2022-10-14T18:16:49.570Z,45.90
2022-10-14T18:20:07.347Z,45.78
2022-10-14T18:23:24.252Z,42.65
2022-10-14T18:26:41.941Z,43.85
2022-10-14T18:29:58.553Z,43.90
2022-10-14T18:33:15.439Z,44.00
2022-10-14T18:36:34.538Z,43.55
2022-10-14T18:39:51.076Z,41.83
2022-10-14T18:43:08.104Z,45.30
2022-10-14T18:46:28.045Z,42.83
2022-10-14T18:50:00.566Z,43.45
2022-10-14T18:53:17.573Z,40.50
2022-10-14T18:56:39.599Z,39.05
2022-10-14T19:00:12.078Z,41.85
2022-10-14T19:03:27.963Z,37.48
2022-10-14T19:06:46.085Z,35.43
2022-10-14T19:10:02.591Z,32.38
2022-10-14T19:13:18.919Z,32.00
2022-10-14T19:16:38.476Z,34.10
2022-10-14T19:19:55.164Z,38.53
2022-10-14T19:23:11.499Z,37.35
2022-10-14T19:26:32.017Z,36.60
2022-10-14T19:29:48.709Z,33.33
2022-10-14T19:33:05.172Z,36.80
2022-10-14T19:36:24.187Z,34.48
2022-10-14T19:42:56.560Z,32.85
2022-10-14T19:46:18.048Z,33.95
2022-10-14T19:49:34.452Z,31.83
2022-10-14T19:52:51.117Z,31.20
2022-10-14T20:00:45.111Z,38.68
2022-10-14T20:04:04.911Z,34.23
2022-10-14T20:07:24.033Z,33.53
2022-10-14T20:10:41.031Z,31.65
2022-10-14T20:13:58.561Z,31.28
2022-10-14T20:17:15.107Z,31.55
2022-10-14T20:20:31.386Z,32.28
2022-10-14T20:24:19.464Z,31.78
2022-10-14T20:30:53.502Z,33.03
2022-10-14T20:34:11.269Z,29.83
2022-10-14T20:37:28.302Z,32.98
2022-10-14T20:40:45.574Z,33.78
2022-10-14T20:44:02.955Z,36.80
2022-10-14T20:47:19.380Z,32.10
2022-10-14T20:50:36.367Z,30.68
2022-10-14T20:53:54.520Z,31.18
2022-10-14T20:57:11.492Z,30.33
2022-10-14T21:00:28.237Z,31.83
2022-10-14T21:03:45.184Z,32.05
2022-10-14T21:07:01.463Z,30.40
2022-10-14T21:10:18.640Z,33.48
2022-10-14T21:13:35.757Z,31.70
2022-10-14T21:16:51.938Z,31.75
2022-10-14T21:20:08.071Z,28.00
2022-10-14T21:23:24.226Z,30.63
2022-10-14T21:26:40.935Z,27.08
2022-10-14T21:29:58.982Z,30.53
2022-10-14T21:33:15.262Z,26.63
2022-10-14T21:36:31.729Z,26.55
2022-10-14T21:39:48.194Z,29.60
2022-10-14T21:43:04.239Z,28.13
2022-10-14T21:46:22.708Z,28.20
2022-10-14T21:49:38.824Z,31.70
2022-10-14T21:52:54.986Z,28.90
2022-10-14T21:56:11.824Z,30.25
2022-10-14T21:59:28.141Z,30.58
2022-10-14T22:02:44.351Z,26.00
2022-10-14T22:06:06.817Z,28.70
2022-10-14T22:09:22.984Z,28.13
2022-10-14T22:12:39.282Z,26.50
2022-10-14T22:15:55.351Z,28.60
2022-10-14T22:19:13.203Z,28.53
2022-10-14T22:22:29.531Z,27.03
2022-10-14T22:25:45.627Z,33.78
2022-10-14T22:29:08.046Z,28.65
2022-10-14T22:32:24.099Z,29.05
2022-10-14T22:35:41.616Z,33.50
2022-10-14T22:39:00.869Z,33.40
2022-10-14T22:42:17.187Z,32.28
2022-10-14T22:45:33.535Z,30.98
2022-10-14T22:48:49.633Z,29.55
2022-10-14T22:52:05.813Z,32.00
2022-10-14T22:55:22.089Z,30.25
2022-10-14T22:58:38.581Z,30.63
2022-10-14T23:01:54.638Z,29.03
2022-10-14T23:05:11.654Z,29.58
2022-10-14T23:08:28.056Z,28.60
2022-10-14T23:11:44.725Z,28.58
2022-10-14T23:15:00.869Z,29.00
2022-10-14T23:18:17.114Z,33.48
2022-10-14T23:21:36.420Z,28.63
2022-10-14T23:24:52.743Z,29.65
2022-10-14T23:28:08.814Z,30.35
2022-10-14T23:31:28.414Z,30.60
2022-10-14T23:34:44.564Z,26.58
2022-10-14T23:38:00.735Z,29.25
2022-10-14T23:41:19.336Z,28.00
2022-10-14T23:44:37.025Z,26.70
2022-10-14T23:47:53.170Z,29.33
2022-10-14T23:51:09.566Z,26.28
2022-10-14T23:54:26.432Z,27.25
2022-10-14T23:57:42.727Z,30.55
